Time;durP1;ratioP1;P1;durP2;ratioP2;P2;SDS_P1;SDS_P2;PMS_P1;PMS_P2;Temp;Humidity;BMP_temperature;BMP_pressure;BME280_temperature;BME280_humidity;BME280_pressure;Samples;Min_cycle;Max_cycle;Signal;HPM_P1;HPM_P2
2022/12/01 00:01:38;;;;;;;10.90;5.90;;;;;;;1.19;100.00;98263.06;10249379;28;20491;-58
2022/12/01 00:06:37;;;;;;;9.27;5.47;;;;;;;1.31;100.00;98266.16;10248939;28;20044;-58
2022/12/01 00:11:37;;;;;;;9.82;5.90;;;;;;;1.23;100.00;98270.06;10249315;28;20487;-58
2022/12/01 00:16:37;;;;;;;7.18;4.13;;;;;;;1.18;100.00;98265.53;10248930;28;20066;-58
2022/12/01 00:21:36;;;;;;;12.10;5.93;;;;;;;1.03;100.00;98265.75;10248875;28;20513;-58
2022/12/01 00:26:36;;;;;;;7.28;3.28;;;;;;;0.99;100.00;98267.31;10248884;28;20109;-58
2022/12/01 00:31:36;;;;;;;9.45;4.60;;;;;;;0.94;100.00;98270.44;10248738;28;20065;-58
2022/12/01 00:36:35;;;;;;;10.00;5.25;;;;;;;0.87;100.00;98265.06;10248894;28;20363;-58
2022/12/01 00:41:34;;;;;;;7.88;4.20;;;;;;;0.80;100.00;98268.16;10255828;28;20408;-58
2022/12/01 00:46:33;;;;;;;10.45;5.90;;;;;;;0.84;100.00;98264.91;10256979;28;20105;-58
2022/12/01 00:51:32;;;;;;;9.57;4.28;;;;;;;0.87;100.00;98259.06;10256281;28;20041;-58
2022/12/01 00:56:31;;;;;;;8.02;3.90;;;;;;;0.99;100.00;98261.28;10256389;28;20029;-58
2022/12/01 01:01:29;;;;;;;11.35;6.57;;;;;;;0.95;100.00;98256.88;10255655;28;20050;-58
2022/12/01 01:06:29;;;;;;;4.40;2.40;;;;;;;0.84;100.00;98254.69;10255591;28;20038;-58
2022/12/01 01:11:27;;;;;;;6.90;2.80;;;;;;;0.81;100.00;98251.16;10255916;28;20070;-58
2022/12/01 01:16:27;;;;;;;22.23;10.88;;;;;;;0.81;100.00;98249.47;10255572;28;20034;-58
2022/12/01 01:21:26;;;;;;;;;;;;;;;0.91;100.00;98245.63;10256036;28;20542;-58
2022/12/01 01:26:28;;;;;;;5.80;3.28;;;;;;;1.10;100.00;98237.09;10255017;28;20592;-58
2022/12/01 01:31:29;;;;;;;5.15;2.95;;;;;;;1.20;100.00;98230.69;10254592;28;20084;-58
2022/12/01 01:36:28;;;;;;;14.77;6.57;;;;;;;1.33;100.00;98230.44;10255169;28;20139;-58
2022/12/01 01:41:27;;;;;;;15.13;6.47;;;;;;;1.28;100.00;98222.56;10255085;28;20042;-58
2022/12/01 01:46:29;;;;;;;5.22;2.58;;;;;;;1.13;100.00;98221.00;10254246;28;20076;-58
2022/12/01 01:51:51;;;;;;;25.58;11.95;;;;;;;1.09;100.00;98223.44;10253141;28;20070;-58
2022/12/01 01:56:51;;;;;;;38.65;23.67;;;;;;;1.27;100.00;98232.72;10253701;28;20151;-57
2022/12/01 02:02:04;;;;;;;37.72;23.33;;;;;;;1.44;100.00;98223.22;10253343;28;20090;-58
2022/12/01 02:07:04;;;;;;;5.53;2.70;;;;;;;1.42;100.00;98214.59;10254262;28;20073;-57
2022/12/01 02:12:10;;;;;;;60.97;32.03;;;;;;;1.33;100.00;98209.97;10253130;28;20069;-58
2022/12/01 02:17:44;;;;;;;38.25;21.25;;;;;;;1.45;100.00;98217.28;10253417;28;20519;-57
2022/12/01 02:23:01;;;;;;;11.90;6.43;;;;;;;1.36;100.00;98212.66;10253422;28;20082;-57
2022/12/01 02:28:06;;;;;;;29.35;16.60;;;;;;;1.39;100.00;98209.34;10253380;28;20074;-57
2022/12/01 02:33:30;;;;;;;68.55;37.00;;;;;;;1.50;100.00;98197.88;10252544;28;20057;-57
2022/12/01 02:39:10;;;;;;;8.43;4.65;;;;;;;1.38;100.00;98193.13;10252491;28;20082;-57
2022/12/01 02:44:15;;;;;;;13.70;7.53;;;;;;;1.14;100.00;98195.53;10252476;28;20504;-57
2022/12/01 02:49:19;;;;;;;16.48;9.20;;;;;;;1.08;100.00;98192.69;10252053;28;20068;-57
2022/12/01 02:54:19;;;;;;;46.13;26.38;;;;;;;0.83;100.00;98196.75;10252329;28;20069;-57
2022/12/01 02:59:19;;;;;;;10.20;5.40;;;;;;;0.75;100.00;98192.97;10251712;28;20479;-57
2022/12/01 03:04:39;;;;;;;7.05;3.60;;;;;;;0.83;100.00;98195.88;10250994;28;20845;-57
2022/12/01 03:09:47;;;;;;;;;;;;;;;0.80;100.00;98209.41;10251356;28;20073;-57
2022/12/01 03:15:06;;;;;;;10.95;5.60;;;;;;;0.72;100.00;98208.16;10250886;28;19960;-57
2022/12/01 03:20:13;;;;;;;6.78;3.17;;;;;;;0.60;100.00;98205.94;10250375;28;20073;-57
2022/12/01 03:25:14;;;;;;;7.85;3.75;;;;;;;0.60;100.00;98205.06;10250262;28;20088;-56
2022/12/01 03:30:15;;;;;;;11.45;5.80;;;;;;;0.58;100.00;98209.22;10250411;28;20492;-58
2022/12/01 03:35:21;;;;;;;13.68;7.50;;;;;;;0.73;100.00;98198.81;10249981;28;20085;-57
2022/12/01 03:40:26;;;;;;;17.05;8.50;;;;;;;0.77;100.00;98204.13;10250224;28;20080;-56
2022/12/01 03:45:39;;;;;;;9.90;5.28;;;;;;;0.57;100.00;98204.91;10250371;28;20072;-57
2022/12/01 03:50:48;;;;;;;12.05;6.10;;;;;;;0.54;100.00;98204.78;10249946;28;20081;-57
2022/12/01 03:55:55;;;;;;;10.02;4.40;;;;;;;0.63;100.00;98197.53;10249568;28;20077;-56
2022/12/01 04:00:56;;;;;;;10.90;6.38;;;;;;;0.66;100.00;98198.56;10249203;28;20516;-56
2022/12/01 04:05:56;;;;;;;7.85;4.07;;;;;;;0.61;100.00;98194.03;10249281;28;20621;-57
2022/12/01 04:10:56;;;;;;;7.20;3.45;;;;;;;0.49;100.00;98196.91;10249091;28;20074;-57
2022/12/01 04:15:55;;;;;;;12.68;6.00;;;;;;;0.53;100.00;98190.28;10248925;28;20061;-57
2022/12/01 04:20:54;;;;;;;22.60;12.15;;;;;;;0.62;100.00;98195.81;10249096;28;20045;-57
2022/12/01 04:26:00;;;;;;;20.63;9.88;;;;;;;0.61;100.00;98201.69;10248666;28;20078;-57
2022/12/01 04:30:59;;;;;;;20.67;14.25;;;;;;;0.67;100.00;98202.00;10248862;28;20062;-57
2022/12/01 04:35:59;;;;;;;13.10;7.65;;;;;;;0.73;100.00;98198.81;10248736;28;20121;-57
2022/12/01 04:40:58;;;;;;;7.80;5.20;;;;;;;0.68;100.00;98203.72;10248254;28;20073;-57
2022/12/01 04:45:56;;;;;;;17.33;11.65;;;;;;;0.70;100.00;98209.78;10248499;28;20023;-57
2022/12/01 04:50:56;;;;;;;11.05;7.20;;;;;;;0.84;100.00;98212.94;10248524;28;20113;-57
2022/12/01 04:55:55;;;;;;;11.40;6.13;;;;;;;0.69;100.00;98202.94;10248478;28;20069;-57
2022/12/01 05:00:54;;;;;;;11.30;6.97;;;;;;;0.61;100.00;98210.22;10247794;28;20081;-57
2022/12/01 05:06:03;;;;;;;35.88;23.15;;;;;;;0.74;100.00;98215.91;10248355;28;20437;-57
2022/12/01 05:11:04;;;;;;;17.73;11.60;;;;;;;0.71;100.00;98210.66;10248047;28;20065;-57
2022/12/01 05:16:08;;;;;;;10.38;6.00;;;;;;;0.61;100.00;98211.91;10248092;28;20077;-57
2022/12/01 05:21:09;;;;;;;9.82;6.45;;;;;;;0.54;100.00;98210.75;10248017;28;20077;-55
2022/12/01 05:26:08;;;;;;;19.30;11.73;;;;;;;0.45;100.00;98203.56;10250506;28;20185;-55
2022/12/01 05:31:07;;;;;;;23.38;13.80;;;;;;;0.53;100.00;98211.56;10255088;28;20536;-57
2022/12/01 05:36:07;;;;;;;19.58;13.23;;;;;;;0.54;100.00;98208.19;10249896;28;20440;-56
2022/12/01 05:41:06;;;;;;;35.00;25.35;;;;;;;0.63;100.00;98207.75;10252835;28;20058;-58
2022/12/01 05:46:05;;;;;;;26.02;16.75;;;;;;;0.44;100.00;98214.56;10254282;28;20077;-57
2022/12/01 05:51:11;;;;;;;20.95;14.40;;;;;;;0.19;100.00;98206.56;10253827;28;20038;-57
2022/12/01 05:56:10;;;;;;;21.80;11.82;;;;;;;0.17;100.00;98215.84;10253851;28;20557;-57
2022/12/01 06:01:09;;;;;;;32.92;19.65;;;;;;;0.22;100.00;98209.28;10253648;28;20558;-57
2022/12/01 06:06:08;;;;;;;;;;;;;;;0.19;100.00;98214.22;10254762;28;20074;-57
2022/12/01 06:11:07;;;;;;;36.45;20.48;;;;;;;0.15;100.00;98210.69;10253224;28;19960;-57
2022/12/01 06:16:06;;;;;;;18.58;11.43;;;;;;;0.04;100.00;98227.16;10253224;28;20049;-57
2022/12/01 06:21:06;;;;;;;36.90;27.75;;;;;;;-0.02;100.00;98224.28;10253148;28;20487;-57
2022/12/01 06:26:05;;;;;;;52.95;27.60;;;;;;;0.04;100.00;98229.69;10252648;28;20058;-57
2022/12/01 06:31:04;;;;;;;25.27;15.07;;;;;;;-0.02;100.00;98225.19;10252975;28;20038;-57
2022/12/01 06:36:05;;;;;;;28.52;16.50;;;;;;;-0.09;100.00;98218.03;10252218;28;20061;-57
2022/12/01 06:41:05;;;;;;;22.05;14.30;;;;;;;-0.32;100.00;98223.69;10251782;28;20057;-57
2022/12/01 06:46:04;;;;;;;13.63;8.57;;;;;;;-0.29;100.00;98224.72;10251865;28;20072;-57
2022/12/01 06:51:03;;;;;;;28.73;16.98;;;;;;;-0.32;100.00;98209.28;10251787;28;20519;-57
2022/12/01 06:56:04;;;;;;;21.83;15.05;;;;;;;-0.28;100.00;98208.59;10251055;28;20432;-57
2022/12/01 07:01:10;;;;;;;26.25;13.68;;;;;;;-0.13;100.00;98220.34;10251588;28;20084;-57
2022/12/01 07:06:09;;;;;;;22.33;12.98;;;;;;;-0.08;100.00;98224.88;10251660;28;20082;-57
2022/12/01 07:11:11;;;;;;;18.15;11.00;;;;;;;-0.04;100.00;98233.53;10251256;28;20034;-57
2022/12/01 07:16:11;;;;;;;17.80;9.68;;;;;;;0.00;100.00;98231.22;10250862;28;20066;-57
2022/12/01 07:21:12;;;;;;;17.02;9.13;;;;;;;0.08;100.00;98235.81;10250879;28;20534;-57
2022/12/01 07:26:13;;;;;;;13.38;7.03;;;;;;;-0.02;100.00;98235.41;10250229;28;20082;-57
2022/12/01 07:31:15;;;;;;;23.02;13.63;;;;;;;-0.06;100.00;98222.41;10249817;28;20077;-57
2022/12/01 07:36:14;;;;;;;16.38;8.38;;;;;;;0.08;100.00;98235.81;10238619;28;20476;-57
2022/12/01 07:41:17;;;;;;;14.43;6.70;;;;;;;-0.04;100.00;98236.09;10250688;28;20070;-56
2022/12/01 07:46:20;;;;;;;17.67;11.25;;;;;;;-0.04;100.00;98231.00;10240801;28;20524;-56
2022/12/01 07:51:21;;;;;;;14.95;8.75;;;;;;;-0.20;100.00;98229.41;10221709;28;20069;-56
2022/12/01 07:56:21;;;;;;;27.67;16.63;;;;;;;-0.34;100.00;98227.84;10247714;28;20343;-56
2022/12/01 08:01:22;;;;;;;20.00;11.88;;;;;;;-0.13;100.00;98240.75;10249730;28;20082;-56
2022/12/01 08:06:22;;;;;;;17.52;10.05;;;;;;;-0.04;100.00;98237.00;10249136;28;20523;-56
2022/12/01 08:11:24;;;;;;;59.95;35.80;;;;;;;0.13;100.00;98239.47;10248908;28;20464;-56
2022/12/01 08:16:23;;;;;;;10.02;5.70;;;;;;;-0.22;100.00;98241.19;10215422;28;20069;-56
2022/12/01 08:21:23;;;;;;;18.90;11.05;;;;;;;-0.25;100.00;98241.94;10229633;28;20069;-56
2022/12/01 08:26:24;;;;;;;15.27;8.85;;;;;;;-0.38;100.00;98242.97;10248513;28;20511;-56
2022/12/01 08:31:26;;;;;;;9.63;5.47;;;;;;;-0.34;100.00;98245.72;10220073;28;20535;-56
2022/12/01 08:36:26;;;;;;;11.43;6.57;;;;;;;-0.21;100.00;98251.47;10241218;28;20058;-56
2022/12/01 08:41:25;;;;;;;;;;;;;;;-0.47;100.00;98242.53;10248478;28;20058;-56
2022/12/01 08:46:24;;;;;;;18.35;10.85;;;;;;;-0.37;100.00;98239.66;10248475;28;19921;-56
2022/12/01 08:51:24;;;;;;;8.13;4.45;;;;;;;-0.33;100.00;98238.13;10248631;28;20066;-56
2022/12/01 08:56:27;;;;;;;6.88;3.83;;;;;;;-0.35;100.00;98238.84;10248022;28;20077;-56
2022/12/01 09:01:26;;;;;;;9.10;4.32;;;;;;;-0.37;100.00;98234.56;10254144;28;20082;-56
2022/12/01 09:06:25;;;;;;;;;;;;;;;-0.23;100.00;98241.97;10256721;28;20069;-56
2022/12/01 09:11:24;;;;;;;10.45;6.13;;;;;;;-0.11;100.00;98239.16;10255707;28;19957;-56
2022/12/01 09:16:23;;;;;;;11.40;6.57;;;;;;;-0.18;100.00;98241.44;10251804;28;20061;-56
2022/12/01 09:21:25;;;;;;;21.85;12.45;;;;;;;-0.06;100.00;98220.75;10255629;28;20030;-57
2022/12/01 09:26:25;;;;;;;16.35;11.25;;;;;;;0.02;100.00;98228.75;10257974;28;20898;-57
2022/12/01 09:31:24;;;;;;;12.25;8.35;;;;;;;0.03;100.00;98223.72;10257748;28;20057;-57
2022/12/01 09:36:24;;;;;;;;;;;;;;;0.04;100.00;98216.94;10255966;28;20058;-57
2022/12/01 09:41:27;;;;;;;14.10;8.63;;;;;;;0.08;100.00;98212.84;10218110;28;19949;-56
2022/12/01 09:46:32;;;;;;;8.73;5.47;;;;;;;0.03;100.00;98210.97;10231100;28;20058;-57
2022/12/01 09:51:34;;;;;;;19.15;10.48;;;;;;;0.12;100.00;98212.19;10253150;28;20547;-57
2022/12/01 09:56:43;;;;;;;14.65;9.02;;;;;;;0.12;100.00;98204.53;10256870;28;20469;-57
2022/12/01 10:01:45;;;;;;;15.68;10.30;;;;;;;0.12;100.00;98199.44;10271525;28;20182;-57
2022/12/01 10:06:53;;;;;;;10.65;7.22;;;;;;;0.15;100.00;98194.50;10256215;28;20064;-57
2022/12/01 10:12:00;;;;;;;9.00;5.68;;;;;;;-0.00;100.00;98202.28;10246819;28;20074;-57
2022/12/01 10:17:34;;;;;;;13.77;6.80;;;;;;;0.07;100.00;98183.91;10253761;28;20531;-57
2022/12/01 10:23:10;;;;;;;11.68;8.07;;;;;;;0.25;100.00;98189.00;10226423;28;20093;-57
2022/12/01 10:28:25;;;;;;;14.90;9.57;;;;;;;0.26;100.00;98189.09;10254749;28;20050;-57
2022/12/01 10:33:42;;;;;;;21.33;10.77;;;;;;;0.33;100.00;98187.66;10253020;28;20086;-57
2022/12/01 10:38:41;;;;;;;20.77;13.60;;;;;;;0.43;100.00;98187.31;10242255;28;20060;-56
2022/12/01 10:43:45;;;;;;;9.30;5.35;;;;;;;0.37;100.00;98183.59;10249213;28;20038;-58
2022/12/01 10:48:59;;;;;;;10.57;6.80;;;;;;;0.22;100.00;98188.88;10251017;28;20094;-58
2022/12/01 10:54:06;;;;;;;8.75;5.10;;;;;;;0.17;100.00;98185.22;10245211;28;20069;-57
2022/12/01 10:59:20;;;;;;;16.05;8.93;;;;;;;0.26;100.00;98181.44;10245437;28;20081;-58
2022/12/01 11:04:34;;;;;;;11.38;6.15;;;;;;;0.30;100.00;98179.88;10249707;28;20089;-58
2022/12/01 11:09:33;;;;;;;18.90;12.20;;;;;;;0.19;100.00;98174.28;10249803;28;20072;-58
2022/12/01 11:14:41;;;;;;;22.42;15.23;;;;;;;0.26;100.00;98177.97;10250513;28;20093;-58
2022/12/01 11:19:40;;;;;;;24.95;16.63;;;;;;;0.26;100.00;98175.44;10250713;28;20068;-58
2022/12/01 11:24:42;;;;;;;20.42;13.43;;;;;;;0.30;100.00;98168.81;10249650;28;20018;-58
2022/12/01 11:29:41;;;;;;;17.20;9.32;;;;;;;0.38;100.00;98170.91;10249900;28;20058;-58
2022/12/01 11:34:58;;;;;;;19.80;11.43;;;;;;;0.33;100.00;98154.47;10248994;28;20081;-58
2022/12/01 11:40:07;;;;;;;12.77;7.40;;;;;;;0.45;100.00;98167.84;10243468;28;20050;-58
2022/12/01 11:45:20;;;;;;;19.48;11.80;;;;;;;0.26;100.00;98168.66;10251181;28;20106;-58
2022/12/01 11:50:24;;;;;;;10.43;6.15;;;;;;;0.25;100.00;98168.59;10252752;28;20069;-58
2022/12/01 11:55:26;;;;;;;8.30;4.97;;;;;;;0.26;100.00;98173.78;10252670;28;20508;-58
2022/12/01 12:00:33;;;;;;;9.18;6.32;;;;;;;0.34;100.00;98158.81;10252216;28;20066;-58
2022/12/01 12:05:53;;;;;;;8.45;5.60;;;;;;;0.18;100.00;98159.78;10252260;28;20069;-57
2022/12/01 12:11:11;;;;;;;4.30;2.55;;;;;;;0.26;100.00;98175.44;10253014;28;20085;-57
2022/12/01 12:16:23;;;;;;;8.10;5.05;;;;;;;0.18;100.00;98164.88;10252869;28;20104;-58
2022/12/01 12:21:37;;;;;;;20.92;13.48;;;;;;;0.34;100.00;98174.13;10252337;28;20073;-57
2022/12/01 12:26:56;;;;;;;18.38;11.90;;;;;;;0.25;100.00;98168.59;10252057;28;20062;-58
2022/12/01 12:32:17;;;;;;;12.67;7.07;;;;;;;0.18;100.00;98172.53;10251853;28;20077;-58
2022/12/01 12:37:34;;;;;;;24.55;13.30;;;;;;;0.12;100.00;98163.72;10259159;28;20602;-58
2022/12/01 12:42:39;;;;;;;21.50;14.00;;;;;;;0.24;100.00;98169.38;10259660;28;20062;-58
2022/12/01 12:47:48;;;;;;;24.85;13.82;;;;;;;0.25;100.00;98166.03;10258729;28;20735;-58
2022/12/01 12:52:52;;;;;;;16.33;8.65;;;;;;;0.21;100.00;98161.59;10260264;28;20174;-58
2022/12/01 12:58:01;;;;;;;11.23;6.50;;;;;;;0.31;100.00;98162.88;10259130;28;20476;-58
2022/12/01 13:03:14;;;;;;;13.03;7.90;;;;;;;0.16;100.00;98166.47;10259152;28;20523;-58
2022/12/01 13:08:25;;;;;;;18.67;13.00;;;;;;;0.08;100.00;98165.25;10258881;28;20077;-58
2022/12/01 13:13:31;;;;;;;13.55;9.18;;;;;;;0.10;100.00;98158.56;10258610;28;20058;-58
2022/12/01 13:19:20;;;;;;;10.48;6.35;;;;;;;-0.06;100.00;98176.50;10258280;28;20483;-58
2022/12/01 13:24:22;;;;;;;11.05;6.50;;;;;;;-0.04;100.00;98170.66;10212435;28;20066;-58
2022/12/01 13:29:23;;;;;;;11.10;6.80;;;;;;;-0.01;100.00;98175.91;10248677;28;20066;-58
2022/12/01 13:34:37;;;;;;;12.90;7.88;;;;;;;-0.00;100.00;98156.38;10258399;28;20066;-58
2022/12/01 13:39:39;;;;;;;158.30;57.45;;;;;;;0.11;100.00;98169.63;10257308;28;20069;-58
2022/12/01 13:44:39;;;;;;;32.20;16.17;;;;;;;0.18;100.00;98161.47;10244982;28;20062;-57
2022/12/01 13:49:44;;;;;;;20.02;12.52;;;;;;;0.17;100.00;98159.69;10214322;28;20752;-57
2022/12/01 13:55:06;;;;;;;22.73;13.98;;;;;;;0.05;100.00;98155.78;10214244;28;20062;-57
2022/12/01 14:00:29;;;;;;;16.85;10.93;;;;;;;-0.02;100.00;98169.06;10216269;28;20753;-57
2022/12/01 14:05:40;;;;;;;20.13;11.63;;;;;;;-0.01;100.00;98155.50;10217349;28;20130;-57
2022/12/01 14:10:39;;;;;;;13.10;7.15;;;;;;;-0.14;100.00;98163.38;10233120;28;20096;-57
2022/12/01 14:15:41;;;;;;;13.05;6.80;;;;;;;-0.05;100.00;98170.59;10234254;28;20377;-57
2022/12/01 14:20:45;;;;;;;17.88;12.27;;;;;;;-0.12;100.00;98168.53;10229872;28;20586;-57
2022/12/01 14:26:16;;;;;;;16.27;10.55;;;;;;;-0.06;100.00;98159.50;10241531;28;20129;-57
2022/12/01 14:31:15;;;;;;;24.50;10.85;;;;;;;-0.30;100.00;98160.88;10239876;28;21134;-57
2022/12/01 14:36:23;;;;;;;10.75;6.80;;;;;;;-0.33;100.00;98161.63;10246988;28;20736;-56
2022/12/01 14:41:28;;;;;;;10.15;6.55;;;;;;;-0.51;100.00;98160.72;10244406;28;20126;-56
2022/12/01 14:46:30;;;;;;;14.63;9.98;;;;;;;-0.44;100.00;98162.75;10247844;28;20113;-57
2022/12/01 14:51:31;;;;;;;16.17;9.85;;;;;;;-0.40;100.00;98163.00;10246800;28;20065;-57
2022/12/01 14:56:32;;;;;;;16.75;11.35;;;;;;;-0.42;100.00;98174.78;10243932;28;20544;-57
2022/12/01 15:01:36;;;;;;;24.40;15.93;;;;;;;-0.53;100.00;98168.31;10237240;28;21633;-57
2022/12/01 15:06:36;;;;;;;12.77;8.77;;;;;;;-0.65;100.00;98176.22;10244921;28;20455;-57
2022/12/01 15:11:40;;;;;;;12.52;6.53;;;;;;;-0.66;100.00;98173.59;10244558;28;20109;-57
2022/12/01 15:16:42;;;;;;;31.02;19.55;;;;;;;-0.53;100.00;98173.41;10245918;28;20097;-56
2022/12/01 15:21:41;;;;;;;63.30;37.28;;;;;;;-0.28;100.00;98175.44;10244215;28;20799;-57
2022/12/01 15:26:47;;;;;;;73.60;40.05;;;;;;;-0.04;100.00;98179.97;10248290;28;20764;-57
2022/12/01 15:31:48;;;;;;;40.05;25.73;;;;;;;0.11;100.00;98167.94;10246195;28;20125;-57
2022/12/01 15:36:49;;;;;;;37.15;28.00;;;;;;;-0.02;100.00;98160.50;10247828;28;20054;-57
2022/12/01 15:41:52;;;;;;;13.15;10.02;;;;;;;0.00;100.00;98182.75;10242798;28;20548;-57
2022/12/01 15:46:53;;;;;;;16.05;12.35;;;;;;;-0.17;100.00;98184.50;10244680;28;20117;-57
2022/12/01 15:51:52;;;;;;;31.38;22.30;;;;;;;-0.22;100.00;98183.41;10245604;28;20076;-57
2022/12/01 15:56:57;;;;;;;13.90;7.53;;;;;;;-0.30;100.00;98182.16;10246259;28;20054;-57
2022/12/01 16:01:57;;;;;;;29.50;20.15;;;;;;;-0.22;100.00;98182.53;10245381;28;20073;-57
2022/12/01 16:07:08;;;;;;;47.97;28.50;;;;;;;-0.01;100.00;98183.56;10246542;28;20101;-57
2022/12/01 16:12:20;;;;;;;15.20;8.82;;;;;;;-0.06;100.00;98190.13;10245617;28;20065;-57
2022/12/01 16:17:20;;;;;;;26.80;18.92;;;;;;;-0.13;100.00;98180.44;10245882;28;20080;-57
2022/12/01 16:22:21;;;;;;;19.55;13.02;;;;;;;-0.08;100.00;98181.53;10244728;28;20929;-57
2022/12/01 16:27:26;;;;;;;18.92;11.45;;;;;;;0.08;100.00;98187.34;10247257;28;20146;-58
2022/12/01 16:32:29;;;;;;;17.75;11.73;;;;;;;0.24;100.00;98180.47;10242518;28;20528;-57
2022/12/01 16:37:28;;;;;;;23.27;13.65;;;;;;;0.37;100.00;98187.00;10246469;28;20088;-57
2022/12/01 16:42:27;;;;;;;37.45;21.83;;;;;;;0.38;100.00;98193.88;10245782;28;20605;-57
2022/12/01 16:47:31;;;;;;;23.85;14.20;;;;;;;0.41;100.00;98196.56;10245253;28;20038;-57
2022/12/01 16:52:30;;;;;;;34.53;17.52;;;;;;;0.41;100.00;98195.69;10246267;28;20558;-56
2022/12/01 16:57:29;;;;;;;89.75;42.72;;;;;;;0.50;100.00;98196.13;10245567;28;20034;-57
2022/12/01 17:02:27;;;;;;;167.15;76.38;;;;;;;0.50;100.00;98191.03;10241648;28;20641;-57
2022/12/01 17:07:26;;;;;;;188.55;103.85;;;;;;;0.58;100.00;98201.56;10243762;28;20049;-57
2022/12/01 17:12:25;;;;;;;75.85;44.22;;;;;;;0.54;100.00;98199.69;10246152;28;20077;-57
2022/12/01 17:17:24;;;;;;;59.13;34.83;;;;;;;0.59;100.00;98205.84;10246289;28;20030;-58
2022/12/01 17:22:23;;;;;;;43.25;27.20;;;;;;;0.51;100.00;98202.97;10250506;28;20437;-57
2022/12/01 17:27:24;;;;;;;67.03;40.00;;;;;;;0.45;100.00;98195.91;10248096;28;20658;-57
2022/12/01 17:32:24;;;;;;;31.75;18.77;;;;;;;0.40;100.00;98210.13;10249295;28;20109;-57
2022/12/01 17:37:26;;;;;;;43.58;25.52;;;;;;;0.37;100.00;98204.88;10261274;28;20061;-57
2022/12/01 17:42:25;;;;;;;73.95;42.58;;;;;;;0.38;100.00;98211.75;10245093;28;20061;-56
2022/12/01 17:47:24;;;;;;;49.15;27.85;;;;;;;0.17;100.00;98215.84;10236978;28;20046;-56
2022/12/01 17:52:23;;;;;;;40.63;24.75;;;;;;;0.22;100.00;98220.38;10247911;28;20062;-57
2022/12/01 17:57:22;;;;;;;24.67;16.27;;;;;;;0.28;100.00;98207.00;10249368;28;20422;-57
2022/12/01 18:02:21;;;;;;;18.77;12.07;;;;;;;0.36;100.00;98213.34;10248200;28;20133;-57
2022/12/01 18:07:20;;;;;;;21.00;12.93;;;;;;;0.43;100.00;98214.53;10247363;28;20032;-57
2022/12/01 18:12:19;;;;;;;14.98;9.65;;;;;;;0.30;100.00;98213.06;10248645;28;20045;-57
2022/12/01 18:17:18;;;;;;;24.08;12.57;;;;;;;0.23;100.00;98221.25;10249288;28;20022;-57
2022/12/01 18:22:17;;;;;;;21.33;12.25;;;;;;;0.14;100.00;98219.13;10248534;28;20026;-57
2022/12/01 18:27:16;;;;;;;18.05;10.75;;;;;;;-0.02;100.00;98221.75;10247584;28;20039;-57
2022/12/01 18:32:15;;;;;;;20.33;11.90;;;;;;;-0.06;100.00;98223.28;10243211;28;20030;-57
2022/12/01 18:37:14;;;;;;;13.80;8.65;;;;;;;0.05;100.00;98232.34;10245444;28;20126;-57
2022/12/01 18:42:13;;;;;;;13.40;9.20;;;;;;;0.18;100.00;98232.91;10245261;28;20121;-57
2022/12/01 18:47:12;;;;;;;447.70;210.75;;;;;;;0.23;100.00;98231.44;10246193;28;20036;-57
2022/12/01 18:52:11;;;;;;;130.30;57.92;;;;;;;0.32;100.00;98238.69;10248714;28;20074;-57
2022/12/01 18:57:10;;;;;;;67.85;33.17;;;;;;;0.25;100.00;98247.72;10247871;28;20041;-57
2022/12/01 19:02:09;;;;;;;39.38;22.85;;;;;;;0.33;100.00;98245.50;10246557;28;20069;-58
2022/12/01 19:07:08;;;;;;;57.40;34.10;;;;;;;0.40;100.00;98238.19;10261796;28;20073;-57
2022/12/01 19:12:08;;;;;;;23.27;14.77;;;;;;;0.45;100.00;98243.53;10246264;28;20038;-58
2022/12/01 19:17:07;;;;;;;22.92;15.43;;;;;;;0.46;100.00;98251.25;10245401;28;20134;-58
2022/12/01 19:22:06;;;;;;;10.57;6.88;;;;;;;0.47;100.00;98241.91;10245510;28;20066;-59
2022/12/01 19:27:05;;;;;;;13.40;9.07;;;;;;;0.47;100.00;98255.59;10246271;28;20126;-59
2022/12/01 19:32:04;;;;;;;14.50;9.15;;;;;;;0.33;100.00;98248.94;10245256;28;20037;-58
2022/12/01 19:37:03;;;;;;;10.57;6.70;;;;;;;0.37;100.00;98247.41;10246095;28;20049;-56
2022/12/01 19:42:03;;;;;;;12.18;6.93;;;;;;;0.35;100.00;98244.78;10246065;28;20034;-56
2022/12/01 19:47:02;;;;;;;13.98;8.70;;;;;;;0.18;100.00;98241.44;10244443;28;20543;-58
2022/12/01 19:52:01;;;;;;;;;;;;;;;0.13;100.00;98249.69;10245537;28;20706;-58
2022/12/01 19:57:00;;;;;;;8.93;5.47;;;;;;;-0.19;100.00;98226.91;10242933;28;19948;-58
2022/12/01 20:01:59;;;;;;;11.15;7.25;;;;;;;-0.36;100.00;98240.53;10229380;28;20162;-58
2022/12/01 20:06:58;;;;;;;24.90;16.67;;;;;;;-0.36;100.00;98248.16;10244500;28;20034;-58
2022/12/01 20:11:57;;;;;;;20.33;13.05;;;;;;;-0.38;100.00;98250.63;10244639;28;20080;-58
2022/12/01 20:16:56;;;;;;;14.43;8.10;;;;;;;-0.45;100.00;98243.47;10245077;28;20045;-58
2022/12/01 20:21:55;;;;;;;8.73;5.32;;;;;;;-0.49;100.00;98250.91;10244326;28;20030;-63
2022/12/01 20:26:57;;;;;;;19.13;11.65;;;;;;;-0.49;100.00;98241.56;10245144;28;20133;-58
2022/12/01 20:31:58;;;;;;;17.30;11.18;;;;;;;-0.36;100.00;98248.16;10243392;28;20069;-58
2022/12/01 20:36:57;;;;;;;62.42;33.85;;;;;;;-0.35;100.00;98252.47;10244118;28;20073;-58
2022/12/01 20:41:56;;;;;;;32.97;21.63;;;;;;;-0.26;100.00;98252.03;10242114;28;20065;-58
2022/12/01 20:46:56;;;;;;;16.08;10.93;;;;;;;-0.13;100.00;98262.06;10243660;28;20037;-58
2022/12/01 20:51:55;;;;;;;32.53;20.00;;;;;;;0.03;100.00;98256.91;10243947;28;20064;-57
2022/12/01 20:56:54;;;;;;;29.40;19.65;;;;;;;0.12;100.00;98260.69;10248667;28;20390;-58
2022/12/01 21:01:54;;;;;;;95.45;49.08;;;;;;;0.18;100.00;98248.22;10252136;28;20154;-58
2022/12/01 21:06:55;;;;;;;138.38;73.15;;;;;;;0.30;100.00;98269.22;10251310;28;20109;-58
2022/12/01 21:17:21;;;;;;;71.07;39.58;;;;;;;0.35;100.00;98272.84;10251867;28;20069;-58
2022/12/01 21:22:20;;;;;;;61.22;32.25;;;;;;;0.41;100.00;98270.59;10247889;28;20504;-58
2022/12/01 21:27:19;;;;;;;75.50;34.90;;;;;;;0.46;100.00;98281.03;10250658;28;20121;-59
2022/12/01 21:32:28;;;;;;;98.40;48.78;;;;;;;0.32;100.00;98282.94;10250561;28;20054;-58
2022/12/01 21:37:27;;;;;;;94.57;37.25;;;;;;;0.28;100.00;98286.13;10250032;28;20066;-58
2022/12/01 21:42:29;;;;;;;13.65;9.35;;;;;;;0.13;100.00;98287.97;10249286;28;20100;-57
2022/12/01 21:47:29;;;;;;;15.93;11.27;;;;;;;0.11;100.00;98292.13;10250092;28;20560;-57
2022/12/01 21:52:37;;;;;;;38.40;22.95;;;;;;;0.16;100.00;98291.53;10248915;28;20076;-57
2022/12/01 21:57:47;;;;;;;11.98;6.80;;;;;;;0.19;100.00;98290.78;10249451;28;20046;-57
2022/12/01 22:02:51;;;;;;;9.93;6.00;;;;;;;0.13;100.00;98299.03;10249021;28;20092;-57
2022/12/01 22:07:57;;;;;;;10.05;5.97;;;;;;;0.15;100.00;98301.69;10246267;28;20568;-57
2022/12/01 22:12:57;;;;;;;13.75;7.55;;;;;;;0.15;100.00;98301.69;10249070;28;20589;-57
2022/12/01 22:17:57;;;;;;;15.27;8.48;;;;;;;0.19;100.00;98295.91;10249044;28;20504;-57
2022/12/01 22:22:57;;;;;;;29.38;13.85;;;;;;;0.23;100.00;98288.47;10248337;28;20487;-57
2022/12/01 22:27:58;;;;;;;29.58;15.32;;;;;;;0.32;100.00;98279.50;10247618;28;20054;-57
2022/12/01 22:33:02;;;;;;;14.15;8.05;;;;;;;0.37;100.00;98271.25;10248507;28;20583;-57
2022/12/01 22:38:10;;;;;;;26.95;15.18;;;;;;;0.44;100.00;98275.84;10248700;28;20054;-57
2022/12/01 22:43:20;;;;;;;14.68;7.68;;;;;;;0.52;100.00;98280.44;10245837;28;20106;-57
2022/12/01 22:48:28;;;;;;;12.70;7.82;;;;;;;0.55;100.00;98270.38;10244868;28;20125;-57
2022/12/01 22:53:29;;;;;;;9.32;5.40;;;;;;;0.59;100.00;98267.16;10247735;28;20085;-57
2022/12/01 22:58:37;;;;;;;10.55;6.80;;;;;;;0.59;100.00;98270.59;10246962;28;20069;-57
2022/12/01 23:03:36;;;;;;;5.97;4.03;;;;;;;0.64;100.00;98270.81;10248508;28;20085;-57
2022/12/01 23:08:35;;;;;;;6.90;4.20;;;;;;;0.67;100.00;98261.59;10250658;28;20049;-56
2022/12/01 23:13:34;;;;;;;10.63;4.65;;;;;;;0.69;100.00;98256.56;10250751;28;20066;-57